sensor_id;sensor_type;location;lat;lon;timestamp;pressure;altitude;pressure_sealevel;temperature;humidity
71768;BME280;59604;52.138;5.446;2022-09-14T00:01:16;101116.00;;;15.45;78.25
71768;BME280;59604;52.138;5.446;2022-09-14T00:03:54;101121.13;;;15.47;78.06
71768;BME280;59604;52.138;5.446;2022-09-14T00:06:22;101114.78;;;15.48;77.84
71768;BME280;59604;52.138;5.446;2022-09-14T00:08:53;101120.91;;;15.49;77.55
71768;BME280;59604;52.138;5.446;2022-09-14T00:11:21;101113.19;;;15.40;77.59
71768;BME280;59604;52.138;5.446;2022-09-14T00:13:49;101117.06;;;15.38;77.45
71768;BME280;59604;52.138;5.446;2022-09-14T00:16:23;101113.84;;;15.36;77.63
71768;BME280;59604;52.138;5.446;2022-09-14T00:18:54;101103.03;;;15.31;77.16
71768;BME280;59604;52.138;5.446;2022-09-14T00:21:22;101100.19;;;15.26;77.74
71768;BME280;59604;52.138;5.446;2022-09-14T00:23:49;101093.84;;;15.27;77.60
71768;BME280;59604;52.138;5.446;2022-09-14T00:26:18;101108.72;;;15.34;77.87
71768;BME280;59604;52.138;5.446;2022-09-14T00:28:55;101094.00;;;15.38;77.19
71768;BME280;59604;52.138;5.446;2022-09-14T00:31:22;101098.91;;;15.35;77.38
71768;BME280;59604;52.138;5.446;2022-09-14T00:33:50;101096.47;;;15.33;77.53
71768;BME280;59604;52.138;5.446;2022-09-14T00:36:22;101086.91;;;15.32;77.83
71768;BME280;59604;52.138;5.446;2022-09-14T00:38:50;101084.03;;;15.34;77.79
71768;BME280;59604;52.138;5.446;2022-09-14T00:41:21;101080.78;;;15.32;77.88
71768;BME280;59604;52.138;5.446;2022-09-14T00:46:52;101071.00;;;15.26;78.13
71768;BME280;59604;52.138;5.446;2022-09-14T00:52:04;101062.25;;;15.25;77.89
71768;BME280;59604;52.138;5.446;2022-09-14T00:54:40;101063.63;;;15.28;78.04
71768;BME280;59604;52.138;5.446;2022-09-14T00:57:07;101060.78;;;15.29;77.87
71768;BME280;59604;52.138;5.446;2022-09-14T00:59:37;101059.59;;;15.25;77.49
71768;BME280;59604;52.138;5.446;2022-09-14T01:02:06;101054.28;;;15.25;77.51
71768;BME280;59604;52.138;5.446;2022-09-14T01:04:35;101053.25;;;15.26;77.61
71768;BME280;59604;52.138;5.446;2022-09-14T01:07:17;101051.63;;;15.25;77.57
71768;BME280;59604;52.138;5.446;2022-09-14T01:15:35;101037.75;;;15.23;77.39
71768;BME280;59604;52.138;5.446;2022-09-14T01:21:00;101026.94;;;15.25;77.81
71768;BME280;59604;52.138;5.446;2022-09-14T01:31:32;101032.81;;;15.27;78.31
71768;BME280;59604;52.138;5.446;2022-09-14T01:34:28;101027.34;;;15.21;78.36
71768;BME280;59604;52.138;5.446;2022-09-14T01:37:05;101028.75;;;15.24;78.50
71768;BME280;59604;52.138;5.446;2022-09-14T01:39:42;101022.63;;;15.23;77.91
71768;BME280;59604;52.138;5.446;2022-09-14T01:42:12;101022.84;;;15.22;78.19
71768;BME280;59604;52.138;5.446;2022-09-14T01:44:42;101015.47;;;15.24;77.68
71768;BME280;59604;52.138;5.446;2022-09-14T01:47:16;101021.41;;;15.26;77.70
71768;BME280;59604;52.138;5.446;2022-09-14T01:49:52;101018.97;;;15.25;77.38
71768;BME280;59604;52.138;5.446;2022-09-14T01:52:32;101019.56;;;15.27;77.51
71768;BME280;59604;52.138;5.446;2022-09-14T01:55:06;101019.34;;;15.28;76.98
71768;BME280;59604;52.138;5.446;2022-09-14T01:57:42;101016.91;;;15.27;77.10
71768;BME280;59604;52.138;5.446;2022-09-14T02:00:13;101011.59;;;15.27;77.04
71768;BME280;59604;52.138;5.446;2022-09-14T02:02:54;101008.56;;;15.23;77.30
71768;BME280;59604;52.138;5.446;2022-09-14T02:05:50;101012.25;;;15.22;78.13
71768;BME280;59604;52.138;5.446;2022-09-14T02:08:20;101010.16;;;15.24;78.05
71768;BME280;59604;52.138;5.446;2022-09-14T02:10:47;101002.00;;;15.26;78.11
71768;BME280;59604;52.138;5.446;2022-09-14T02:13:14;100995.09;;;15.25;77.57
71768;BME280;59604;52.138;5.446;2022-09-14T02:15:40;101001.00;;;15.20;77.81
71768;BME280;59604;52.138;5.446;2022-09-14T02:18:07;101005.78;;;15.11;77.92
71768;BME280;59604;52.138;5.446;2022-09-14T02:20:46;100997.66;;;15.06;78.10
71768;BME280;59604;52.138;5.446;2022-09-14T02:23:14;100996.41;;;15.02;78.11
71768;BME280;59604;52.138;5.446;2022-09-14T02:25:41;100990.53;;;15.00;78.28
71768;BME280;59604;52.138;5.446;2022-09-14T02:28:07;100992.75;;;15.03;78.58
71768;BME280;59604;52.138;5.446;2022-09-14T02:30:48;100995.19;;;15.05;78.42
71768;BME280;59604;52.138;5.446;2022-09-14T02:33:20;100993.59;;;14.97;78.15
71768;BME280;59604;52.138;5.446;2022-09-14T02:35:55;100987.34;;;14.91;78.33
71768;BME280;59604;52.138;5.446;2022-09-14T02:38:46;100988.13;;;14.92;78.28
71768;BME280;59604;52.138;5.446;2022-09-14T02:41:21;100980.78;;;14.87;78.14
71768;BME280;59604;52.138;5.446;2022-09-14T02:55:36;100959.06;;;14.72;79.87
71768;BME280;59604;52.138;5.446;2022-09-14T02:58:13;100958.84;;;14.80;79.78
71768;BME280;59604;52.138;5.446;2022-09-14T03:00:49;100964.88;;;14.87;80.03
71768;BME280;59604;52.138;5.446;2022-09-14T03:03:19;100954.88;;;14.89;79.84
71768;BME280;59604;52.138;5.446;2022-09-14T03:05:46;100957.78;;;14.88;80.21
71768;BME280;59604;52.138;5.446;2022-09-14T03:08:12;100953.69;;;14.85;79.46
71768;BME280;59604;52.138;5.446;2022-09-14T03:10:42;100948.81;;;14.82;79.96
71768;BME280;59604;52.138;5.446;2022-09-14T03:13:10;100945.56;;;14.80;79.84
71768;BME280;59604;52.138;5.446;2022-09-14T03:15:36;100952.91;;;14.78;79.86
71768;BME280;59604;52.138;5.446;2022-09-14T03:18:05;100952.50;;;14.81;79.92
71768;BME280;59604;52.138;5.446;2022-09-14T03:20:32;100961.84;;;14.84;80.11
71768;BME280;59604;52.138;5.446;2022-09-14T03:23:00;100957.97;;;14.86;80.14
71768;BME280;59604;52.138;5.446;2022-09-14T03:25:27;100951.63;;;14.87;80.53
71768;BME280;59604;52.138;5.446;2022-09-14T03:27:56;100945.56;;;14.80;80.43
71768;BME280;59604;52.138;5.446;2022-09-14T03:30:23;100942.91;;;14.80;80.44
71768;BME280;59604;52.138;5.446;2022-09-14T03:32:50;100932.50;;;14.79;80.61
71768;BME280;59604;52.138;5.446;2022-09-14T03:35:17;100923.13;;;14.76;80.24
71768;BME280;59604;52.138;5.446;2022-09-14T03:37:44;100922.16;;;14.70;79.95
71768;BME280;59604;52.138;5.446;2022-09-14T03:40:14;100921.53;;;14.68;81.04
71768;BME280;59604;52.138;5.446;2022-09-14T03:42:48;100932.75;;;14.70;80.43
71768;BME280;59604;52.138;5.446;2022-09-14T03:45:16;100931.53;;;14.73;80.98
71768;BME280;59604;52.138;5.446;2022-09-14T03:47:43;100935.97;;;14.79;81.22
71768;BME280;59604;52.138;5.446;2022-09-14T03:50:10;100930.47;;;14.81;80.61
71768;BME280;59604;52.138;5.446;2022-09-14T03:52:38;100915.94;;;14.83;81.19
71768;BME280;59604;52.138;5.446;2022-09-14T03:55:06;100914.38;;;14.76;81.73
71768;BME280;59604;52.138;5.446;2022-09-14T03:57:33;100918.50;;;14.65;82.48
71768;BME280;59604;52.138;5.446;2022-09-14T04:00:00;100913.84;;;14.60;82.63
71768;BME280;59604;52.138;5.446;2022-09-14T04:02:27;100913.00;;;14.66;82.69
71768;BME280;59604;52.138;5.446;2022-09-14T04:04:54;100909.31;;;14.67;82.55
71768;BME280;59604;52.138;5.446;2022-09-14T04:07:21;100902.59;;;14.65;82.77
71768;BME280;59604;52.138;5.446;2022-09-14T04:09:47;100911.75;;;14.69;82.94
71768;BME280;59604;52.138;5.446;2022-09-14T04:12:14;100909.72;;;14.71;83.33
71768;BME280;59604;52.138;5.446;2022-09-14T04:14:40;100900.34;;;14.68;83.22
71768;BME280;59604;52.138;5.446;2022-09-14T04:17:07;100908.09;;;14.70;83.45
71768;BME280;59604;52.138;5.446;2022-09-14T04:19:33;100902.19;;;14.68;83.53
71768;BME280;59604;52.138;5.446;2022-09-14T04:22:03;100899.34;;;14.69;83.70
71768;BME280;59604;52.138;5.446;2022-09-14T04:24:30;100897.91;;;14.67;83.75
71768;BME280;59604;52.138;5.446;2022-09-14T04:26:57;100894.66;;;14.65;83.83
71768;BME280;59604;52.138;5.446;2022-09-14T04:29:24;100902.81;;;14.63;83.58
71768;BME280;59604;52.138;5.446;2022-09-14T04:31:51;100901.63;;;14.59;83.61
71768;BME280;59604;52.138;5.446;2022-09-14T04:34:17;100895.72;;;14.57;83.94
71768;BME280;59604;52.138;5.446;2022-09-14T04:36:43;100887.19;;;14.55;83.81
71768;BME280;59604;52.138;5.446;2022-09-14T04:39:11;100891.66;;;14.55;84.05
71768;BME280;59604;52.138;5.446;2022-09-14T04:41:39;100902.28;;;14.55;83.75
71768;BME280;59604;52.138;5.446;2022-09-14T04:44:05;100899.78;;;14.60;83.64
71768;BME280;59604;52.138;5.446;2022-09-14T04:46:33;100896.91;;;14.61;83.75
71768;BME280;59604;52.138;5.446;2022-09-14T04:49:11;100890.03;;;14.54;83.89
71768;BME280;59604;52.138;5.446;2022-09-14T04:51:38;100889.03;;;14.55;83.38
71768;BME280;59604;52.138;5.446;2022-09-14T04:54:05;100888.78;;;14.56;83.65
71768;BME280;59604;52.138;5.446;2022-09-14T04:56:34;100886.78;;;14.52;83.68
71768;BME280;59604;52.138;5.446;2022-09-14T04:59:02;100870.06;;;14.51;84.30
71768;BME280;59604;52.138;5.446;2022-09-14T05:01:35;100861.66;;;14.54;84.47
71768;BME280;59604;52.138;5.446;2022-09-14T05:04:03;100869.63;;;14.54;84.38
71768;BME280;59604;52.138;5.446;2022-09-14T05:06:32;100884.94;;;14.52;84.35
71768;BME280;59604;52.138;5.446;2022-09-14T05:09:00;100884.53;;;14.48;84.03
71768;BME280;59604;52.138;5.446;2022-09-14T05:11:32;100884.53;;;14.55;83.81
71768;BME280;59604;52.138;5.446;2022-09-14T05:14:00;100885.75;;;14.53;83.95
71768;BME280;59604;52.138;5.446;2022-09-14T05:16:30;100882.50;;;14.50;84.40
71768;BME280;59604;52.138;5.446;2022-09-14T05:19:02;100883.09;;;14.46;84.78
71768;BME280;59604;52.138;5.446;2022-09-14T05:21:30;100886.41;;;14.41;85.06
71768;BME280;59604;52.138;5.446;2022-09-14T05:23:59;100889.44;;;14.45;84.88
71768;BME280;59604;52.138;5.446;2022-09-14T05:26:27;100899.22;;;14.44;85.34
71768;BME280;59604;52.138;5.446;2022-09-14T05:28:55;100888.44;;;14.39;84.90
71768;BME280;59604;52.138;5.446;2022-09-14T05:31:22;100892.53;;;14.35;84.82
71768;BME280;59604;52.138;5.446;2022-09-14T05:33:49;100897.81;;;14.42;84.80
71768;BME280;59604;52.138;5.446;2022-09-14T05:36:16;100894.97;;;14.43;85.23
71768;BME280;59604;52.138;5.446;2022-09-14T05:38:43;100897.00;;;14.41;85.41
71768;BME280;59604;52.138;5.446;2022-09-14T05:41:11;100893.53;;;14.41;85.30
71768;BME280;59604;52.138;5.446;2022-09-14T05:43:38;100894.50;;;14.46;85.01
71768;BME280;59604;52.138;5.446;2022-09-14T05:46:12;100890.63;;;14.49;85.22
71768;BME280;59604;52.138;5.446;2022-09-14T05:48:39;100887.78;;;14.50;85.50
71768;BME280;59604;52.138;5.446;2022-09-14T05:51:12;100883.91;;;14.53;85.29
71768;BME280;59604;52.138;5.446;2022-09-14T05:53:52;100885.91;;;14.58;85.43
71768;BME280;59604;52.138;5.446;2022-09-14T05:56:20;100882.25;;;14.59;85.08
71768;BME280;59604;52.138;5.446;2022-09-14T05:58:47;100873.28;;;14.60;85.06
71768;BME280;59604;52.138;5.446;2022-09-14T06:01:14;100875.94;;;14.60;84.84
71768;BME280;59604;52.138;5.446;2022-09-14T06:03:42;100885.72;;;14.59;84.72
71768;BME280;59604;52.138;5.446;2022-09-14T06:06:11;100877.94;;;14.64;85.26
71768;BME280;59604;52.138;5.446;2022-09-14T06:08:38;100878.72;;;14.71;84.94
71768;BME280;59604;52.138;5.446;2022-09-14T06:13:36;100880.28;;;14.79;84.45
71768;BME280;59604;52.138;5.446;2022-09-14T06:16:04;100880.28;;;14.79;84.76
71768;BME280;59604;52.138;5.446;2022-09-14T06:18:32;100888.03;;;14.81;84.50
71768;BME280;59604;52.138;5.446;2022-09-14T06:20:59;100890.63;;;14.87;84.26
71768;BME280;59604;52.138;5.446;2022-09-14T06:23:27;100888.59;;;14.89;83.05
71768;BME280;59604;52.138;5.446;2022-09-14T06:25:54;100894.13;;;14.88;83.28
71768;BME280;59604;52.138;5.446;2022-09-14T06:28:22;100896.53;;;14.89;83.08
71768;BME280;59604;52.138;5.446;2022-09-14T06:30:50;100893.22;;;14.94;83.18
71768;BME280;59604;52.138;5.446;2022-09-14T06:33:17;100893.81;;;15.03;83.23
71768;BME280;59604;52.138;5.446;2022-09-14T06:35:53;100892.78;;;15.04;82.80
71768;BME280;59604;52.138;5.446;2022-09-14T06:38:21;100894.72;;;15.15;82.75
71768;BME280;59604;52.138;5.446;2022-09-14T06:40:57;100889.56;;;15.20;81.46
71768;BME280;59604;52.138;5.446;2022-09-14T06:43:26;100885.28;;;15.19;81.45
71768;BME280;59604;52.138;5.446;2022-09-14T06:46:00;100887.91;;;15.26;81.11
71768;BME280;59604;52.138;5.446;2022-09-14T06:48:29;100881.34;;;15.28;81.63
71768;BME280;59604;52.138;5.446;2022-09-14T06:50:56;100873.31;;;15.35;81.70
71768;BME280;59604;52.138;5.446;2022-09-14T06:53:23;100879.38;;;15.42;81.81
71768;BME280;59604;52.138;5.446;2022-09-14T06:55:50;100886.75;;;15.40;81.14
71768;BME280;59604;52.138;5.446;2022-09-14T06:58:18;100891.34;;;15.26;80.90
71768;BME280;59604;52.138;5.446;2022-09-14T07:00:45;100883.41;;;15.26;81.30
71768;BME280;59604;52.138;5.446;2022-09-14T07:03:11;100886.06;;;15.26;81.09
71768;BME280;59604;52.138;5.446;2022-09-14T07:05:38;100892.59;;;15.23;81.63
71768;BME280;59604;52.138;5.446;2022-09-14T07:08:04;100890.59;;;15.19;81.87
71768;BME280;59604;52.138;5.446;2022-09-14T07:10:37;100886.53;;;15.16;81.26
71768;BME280;59604;52.138;5.446;2022-09-14T07:13:03;100881.47;;;15.15;81.56
71768;BME280;59604;52.138;5.446;2022-09-14T07:15:30;100881.03;;;15.18;81.20
71768;BME280;59604;52.138;5.446;2022-09-14T07:17:56;100885.94;;;15.14;80.97
71768;BME280;59604;52.138;5.446;2022-09-14T07:20:24;100880.22;;;15.17;81.34
71768;BME280;59604;52.138;5.446;2022-09-14T07:22:50;100881.59;;;15.20;81.21
71768;BME280;59604;52.138;5.446;2022-09-14T07:25:17;100880.13;;;15.24;81.10
71768;BME280;59604;52.138;5.446;2022-09-14T07:27:43;100878.69;;;15.28;80.87
71768;BME280;59604;52.138;5.446;2022-09-14T07:30:10;100883.34;;;15.33;81.70
71768;BME280;59604;52.138;5.446;2022-09-14T07:32:37;100886.09;;;15.44;81.54
71768;BME280;59604;52.138;5.446;2022-09-14T07:35:04;100887.22;;;15.55;81.68
71768;BME280;59604;52.138;5.446;2022-09-14T07:37:31;100887.38;;;15.60;81.48
71768;BME280;59604;52.138;5.446;2022-09-14T07:39:57;100880.66;;;15.58;80.80
71768;BME280;59604;52.138;5.446;2022-09-14T07:42:24;100872.53;;;15.53;80.76
71768;BME280;59604;52.138;5.446;2022-09-14T07:44:51;100876.81;;;15.54;81.04
71768;BME280;59604;52.138;5.446;2022-09-14T07:47:17;100876.16;;;15.58;81.75
71768;BME280;59604;52.138;5.446;2022-09-14T07:49:44;100869.97;;;15.64;81.51
71768;BME280;59604;52.138;5.446;2022-09-14T07:52:10;100876.94;;;15.65;81.08
71768;BME280;59604;52.138;5.446;2022-09-14T07:54:37;100869.13;;;15.70;80.53
71768;BME280;59604;52.138;5.446;2022-09-14T07:57:03;100882.09;;;15.79;80.90
71768;BME280;59604;52.138;5.446;2022-09-14T07:59:30;100879.59;;;15.84;80.14
71768;BME280;59604;52.138;5.446;2022-09-14T08:02:04;100881.59;;;15.88;79.60
71768;BME280;59604;52.138;5.446;2022-09-14T08:04:36;100876.47;;;15.87;79.43
71768;BME280;59604;52.138;5.446;2022-09-14T08:07:05;100871.78;;;15.89;80.06
71768;BME280;59604;52.138;5.446;2022-09-14T08:09:31;100881.28;;;15.97;79.86
71768;BME280;59604;52.138;5.446;2022-09-14T08:11:58;100874.50;;;16.01;79.44
71768;BME280;59604;52.138;5.446;2022-09-14T08:14:25;100877.22;;;15.94;79.33
71768;BME280;59604;52.138;5.446;2022-09-14T08:16:52;100879.69;;;15.96;79.87
71768;BME280;59604;52.138;5.446;2022-09-14T08:19:18;100873.91;;;15.99;79.50
71768;BME280;59604;52.138;5.446;2022-09-14T08:21:46;100874.28;;;16.02;79.22
71768;BME280;59604;52.138;5.446;2022-09-14T08:24:15;100874.06;;;16.04;78.91
71768;BME280;59604;52.138;5.446;2022-09-14T08:26:42;100864.59;;;16.08;79.11
71768;BME280;59604;52.138;5.446;2022-09-14T08:29:11;100862.09;;;16.13;78.83
71768;BME280;59604;52.138;5.446;2022-09-14T08:31:39;100868.47;;;16.24;78.62
71768;BME280;59604;52.138;5.446;2022-09-14T08:34:06;100876.63;;;16.29;78.06
71768;BME280;59604;52.138;5.446;2022-09-14T08:36:35;100881.03;;;16.35;78.08
71768;BME280;59604;52.138;5.446;2022-09-14T08:39:03;100870.28;;;16.41;78.18
71768;BME280;59604;52.138;5.446;2022-09-14T08:41:39;100865.56;;;16.43;78.22
71768;BME280;59604;52.138;5.446;2022-09-14T08:46:39;100845.34;;;16.42;78.91
71768;BME280;59604;52.138;5.446;2022-09-14T08:49:15;100844.44;;;16.49;79.10
71768;BME280;59604;52.138;5.446;2022-09-14T08:51:44;100845.38;;;16.54;79.00
71768;BME280;59604;52.138;5.446;2022-09-14T08:54:11;100847.13;;;16.60;78.65
71768;BME280;59604;52.138;5.446;2022-09-14T08:56:44;100841.13;;;16.65;77.82
71768;BME280;59604;52.138;5.446;2022-09-14T09:02:01;100836.75;;;16.71;77.10
71768;BME280;59604;52.138;5.446;2022-09-14T09:04:52;100838.28;;;16.78;77.19
71768;BME280;59604;52.138;5.446;2022-09-14T09:10:30;100844.41;;;16.79;77.57
71768;BME280;59604;52.138;5.446;2022-09-14T09:13:03;100844.56;;;16.84;77.56
71768;BME280;59604;52.138;5.446;2022-09-14T09:15:50;100847.13;;;16.90;77.89
71768;BME280;59604;52.138;5.446;2022-09-14T09:18:24;100849.78;;;16.90;77.21
71768;BME280;59604;52.138;5.446;2022-09-14T09:20:58;100843.84;;;16.88;77.77
71768;BME280;59604;52.138;5.446;2022-09-14T09:23:28;100846.31;;;16.90;76.78
71768;BME280;59604;52.138;5.446;2022-09-14T09:26:15;100846.53;;;16.88;76.88
71768;BME280;59604;52.138;5.446;2022-09-14T09:28:50;100852.56;;;16.96;77.07
71768;BME280;59604;52.138;5.446;2022-09-14T09:31:20;100844.69;;;17.01;76.27
71768;BME280;59604;52.138;5.446;2022-09-14T09:33:50;100848.84;;;17.08;75.23
71768;BME280;59604;52.138;5.446;2022-09-14T09:36:16;100846.44;;;17.19;75.44
71768;BME280;59604;52.138;5.446;2022-09-14T09:38:43;100840.28;;;17.30;75.52
71768;BME280;59604;52.138;5.446;2022-09-14T09:41:18;100828.59;;;17.43;75.64
71768;BME280;59604;52.138;5.446;2022-09-14T09:44:05;100827.66;;;17.49;75.60
71768;BME280;59604;52.138;5.446;2022-09-14T09:46:43;100826.28;;;17.58;75.28
71768;BME280;59604;52.138;5.446;2022-09-14T09:49:20;100837.94;;;17.69;73.51
71768;BME280;59604;52.138;5.446;2022-09-14T09:51:49;100838.41;;;17.77;73.31
71768;BME280;59604;52.138;5.446;2022-09-14T09:54:27;100836.91;;;17.81;74.25
71768;BME280;59604;52.138;5.446;2022-09-14T09:57:03;100835.88;;;17.82;73.86
71768;BME280;59604;52.138;5.446;2022-09-14T09:59:37;100842.22;;;17.81;72.48
71768;BME280;59604;52.138;5.446;2022-09-14T10:02:29;100837.69;;;17.82;72.65
71768;BME280;59604;52.138;5.446;2022-09-14T10:05:04;100836.91;;;17.81;72.51
71768;BME280;59604;52.138;5.446;2022-09-14T10:07:50;100836.34;;;17.79;72.13
71768;BME280;59604;52.138;5.446;2022-09-14T10:10:20;100841.41;;;17.81;71.52
71768;BME280;59604;52.138;5.446;2022-09-14T10:12:52;100837.22;;;17.85;71.19
71768;BME280;59604;52.138;5.446;2022-09-14T10:20:42;100840.09;;;17.95;73.94
71768;BME280;59604;52.138;5.446;2022-09-14T10:25:47;100831.97;;;18.02;74.08
71768;BME280;59604;52.138;5.446;2022-09-14T10:28:28;100826.53;;;17.97;73.66
71768;BME280;59604;52.138;5.446;2022-09-14T10:30:59;100825.25;;;17.99;74.18
71768;BME280;59604;52.138;5.446;2022-09-14T10:33:28;100820.84;;;18.05;73.34
71768;BME280;59604;52.138;5.446;2022-09-14T10:41:45;100820.03;;;18.04;73.66
71768;BME280;59604;52.138;5.446;2022-09-14T10:57:54;100811.03;;;18.22;72.44
71768;BME280;59604;52.138;5.446;2022-09-14T11:00:22;100812.75;;;18.28;71.92
71768;BME280;59604;52.138;5.446;2022-09-14T11:05:24;100818.88;;;18.29;69.22
71768;BME280;59604;52.138;5.446;2022-09-14T11:08:27;100818.75;;;18.35;69.97
71768;BME280;59604;52.138;5.446;2022-09-14T11:14:18;100808.81;;;18.48;68.48
71768;BME280;59604;52.138;5.446;2022-09-14T11:17:19;100820.28;;;18.48;69.16
71768;BME280;59604;52.138;5.446;2022-09-14T11:28:37;100826.06;;;18.57;67.68
71768;BME280;59604;52.138;5.446;2022-09-14T11:33:39;100823.72;;;18.61;67.12
71768;BME280;59604;52.138;5.446;2022-09-14T11:38:47;100824.84;;;18.65;68.21
71768;BME280;59604;52.138;5.446;2022-09-14T11:41:31;100819.19;;;18.61;68.17
71768;BME280;59604;52.138;5.446;2022-09-14T11:44:05;100818.38;;;18.61;68.78
71768;BME280;59604;52.138;5.446;2022-09-14T11:46:45;100815.94;;;18.59;67.80
71768;BME280;59604;52.138;5.446;2022-09-14T11:49:25;100812.88;;;18.67;67.79
71768;BME280;59604;52.138;5.446;2022-09-14T11:51:57;100807.56;;;18.67;67.44
71768;BME280;59604;52.138;5.446;2022-09-14T11:54:26;100809.31;;;18.62;65.15
71768;BME280;59604;52.138;5.446;2022-09-14T11:56:59;100811.91;;;18.56;64.93
71768;BME280;59604;52.138;5.446;2022-09-14T12:20:47;100797.53;;;18.91;68.03
71768;BME280;59604;52.138;5.446;2022-09-14T12:28:40;100801.56;;;19.11;63.95
71768;BME280;59604;52.138;5.446;2022-09-14T12:31:28;100802.94;;;19.13;64.31
71768;BME280;59604;52.138;5.446;2022-09-14T12:34:26;100793.06;;;19.14;64.25
71768;BME280;59604;52.138;5.446;2022-09-14T12:36:56;100802.09;;;19.29;64.28
71768;BME280;59604;52.138;5.446;2022-09-14T12:39:25;100795.16;;;19.50;63.52
71768;BME280;59604;52.138;5.446;2022-09-14T12:44:39;100787.84;;;19.41;63.84
71768;BME280;59604;52.138;5.446;2022-09-14T12:49:52;100777.19;;;19.24;64.89
71768;BME280;59604;52.138;5.446;2022-09-14T12:52:32;100774.53;;;19.46;66.10
71768;BME280;59604;52.138;5.446;2022-09-14T12:57:39;100777.09;;;19.79;62.83
71768;BME280;59604;52.138;5.446;2022-09-14T13:00:14;100765.75;;;19.94;63.59
71768;BME280;59604;52.138;5.446;2022-09-14T13:03:13;100764.91;;;20.16;62.47
71768;BME280;59604;52.138;5.446;2022-09-14T13:05:44;100758.19;;;20.40;60.26
71768;BME280;59604;52.138;5.446;2022-09-14T13:08:12;100756.16;;;20.53;58.30
71768;BME280;59604;52.138;5.446;2022-09-14T13:10:46;100755.22;;;20.42;58.44
71768;BME280;59604;52.138;5.446;2022-09-14T13:13:20;100752.59;;;20.47;58.92
71768;BME280;59604;52.138;5.446;2022-09-14T13:15:56;100756.16;;;20.53;60.21
71768;BME280;59604;52.138;5.446;2022-09-14T13:18:37;100757.03;;;20.63;58.56
71768;BME280;59604;52.138;5.446;2022-09-14T13:21:17;100750.88;;;20.63;59.18
71768;BME280;59604;52.138;5.446;2022-09-14T13:23:45;100753.16;;;20.81;56.98
71768;BME280;59604;52.138;5.446;2022-09-14T13:26:18;100751.09;;;20.98;57.85
71768;BME280;59604;52.138;5.446;2022-09-14T13:28:47;100742.56;;;21.02;57.66
71768;BME280;59604;52.138;5.446;2022-09-14T13:31:33;100745.00;;;21.03;57.96
71768;BME280;59604;52.138;5.446;2022-09-14T13:34:01;100746.56;;;20.99;56.77
71768;BME280;59604;52.138;5.446;2022-09-14T13:36:41;100746.56;;;20.99;56.89
71768;BME280;59604;52.138;5.446;2022-09-14T13:39:26;100743.84;;;20.89;58.03
71768;BME280;59604;52.138;5.446;2022-09-14T13:41:54;100741.31;;;21.19;58.83
71768;BME280;59604;52.138;5.446;2022-09-14T13:44:27;100740.28;;;21.31;55.59
71768;BME280;59604;52.138;5.446;2022-09-14T13:46:56;100738.16;;;21.33;56.54
71768;BME280;59604;52.138;5.446;2022-09-14T13:49:23;100733.84;;;21.32;55.54
71768;BME280;59604;52.138;5.446;2022-09-14T13:51:50;100736.50;;;21.21;54.67
71768;BME280;59604;52.138;5.446;2022-09-14T13:54:18;100736.09;;;21.40;55.51
71768;BME280;59604;52.138;5.446;2022-09-14T13:56:45;100743.31;;;21.39;55.66
71768;BME280;59604;52.138;5.446;2022-09-14T13:59:15;100735.72;;;21.21;55.88
71768;BME280;59604;52.138;5.446;2022-09-14T14:04:24;100732.03;;;20.90;57.50
71768;BME280;59604;52.138;5.446;2022-09-14T14:07:17;100734.00;;;20.99;57.37
71768;BME280;59604;52.138;5.446;2022-09-14T14:09:47;100734.16;;;20.83;56.14
71768;BME280;59604;52.138;5.446;2022-09-14T14:12:27;100725.50;;;20.70;57.08
71768;BME280;59604;52.138;5.446;2022-09-14T14:19:57;100727.16;;;20.44;57.64
71768;BME280;59604;52.138;5.446;2022-09-14T14:22:33;100722.69;;;20.50;58.58
71768;BME280;59604;52.138;5.446;2022-09-14T14:25:16;100718.06;;;20.45;58.64
71768;BME280;59604;52.138;5.446;2022-09-14T14:27:46;100713.28;;;20.47;58.59
71768;BME280;59604;52.138;5.446;2022-09-14T14:30:16;100712.84;;;20.56;58.41
71768;BME280;59604;52.138;5.446;2022-09-14T14:32:45;100707.25;;;20.62;56.81
71768;BME280;59604;52.138;5.446;2022-09-14T14:35:17;100701.94;;;20.67;56.26
71768;BME280;59604;52.138;5.446;2022-09-14T14:37:43;100707.00;;;20.69;56.73
71768;BME280;59604;52.138;5.446;2022-09-14T14:40:11;100713.44;;;20.68;55.23
71768;BME280;59604;52.138;5.446;2022-09-14T14:42:38;100704.50;;;20.52;56.56
71768;BME280;59604;52.138;5.446;2022-09-14T14:45:05;100701.06;;;20.57;56.83
71768;BME280;59604;52.138;5.446;2022-09-14T14:47:32;100697.47;;;20.83;56.33
71768;BME280;59604;52.138;5.446;2022-09-14T14:49:58;100694.88;;;20.98;55.42
71768;BME280;59604;52.138;5.446;2022-09-14T14:52:25;100686.88;;;21.04;54.77
71768;BME280;59604;52.138;5.446;2022-09-14T14:54:52;100689.88;;;21.17;54.79
71768;BME280;59604;52.138;5.446;2022-09-14T14:57:18;100691.06;;;21.42;56.17
71768;BME280;59604;52.138;5.446;2022-09-14T14:59:45;100680.53;;;21.25;55.46
71768;BME280;59604;52.138;5.446;2022-09-14T15:02:12;100681.88;;;21.28;57.58
71768;BME280;59604;52.138;5.446;2022-09-14T15:04:38;100680.59;;;21.35;55.20
71768;BME280;59604;52.138;5.446;2022-09-14T15:07:05;100676.50;;;21.17;53.59
71768;BME280;59604;52.138;5.446;2022-09-14T15:09:31;100678.09;;;21.18;53.81
71768;BME280;59604;52.138;5.446;2022-09-14T15:11:58;100678.41;;;21.32;56.05
71768;BME280;59604;52.138;5.446;2022-09-14T15:14:25;100670.00;;;21.08;53.89
71768;BME280;59604;52.138;5.446;2022-09-14T15:16:53;100669.94;;;20.93;55.77
71768;BME280;59604;52.138;5.446;2022-09-14T15:19:23;100665.16;;;21.00;56.40
71768;BME280;59604;52.138;5.446;2022-09-14T15:21:50;100659.59;;;21.12;55.75
71768;BME280;59604;52.138;5.446;2022-09-14T15:24:16;100655.81;;;21.03;54.70